This is the latest recevied weather packets stored in our database for station/object K7LDN-13. If no packets are shown the sender has not sent any weather packets the latest 1 day(s).
| Time | Temp. | Humidity | Pressure | Rain* | Wind** | Luminosity | Snow |
|---|---|---|---|---|---|---|---|
| 1778100058 | 15.56° C | 26% | 1022.7 hPa | 0 mm | - | 786 W/m² | - |
| 1778097027 | 15° C | 25% | 1022.7 hPa | 0 mm | - | 859 W/m² | - |
| 1778096421 | 15° C | 25% | 1022.7 hPa | 0 mm | - | 860 W/m² | - |
| 1778096118 | 14.44° C | 25% | 1022.7 hPa | 0 mm | - | 852 W/m² | - |
| 1778095512 | 14.44° C | 24% | 1022.7 hPa | 0 mm | - | 846 W/m² | - |
| 1778095208 | 14.44° C | 25% | 1022.7 hPa | 0 mm | - | 833 W/m² | - |
| 1778094905 | 15° C | 25% | 1022.9 hPa | 0 mm | - | 830 W/m² | - |
| 1778093692 | 13.89° C | 25% | 1022.7 hPa | 0 mm | - | 818 W/m² | - |
| 1778093086 | 13.33° C | 24% | 1022.6 hPa | 0 mm | - | 823 W/m² | - |
| 1778091873 | 13.33° C | 24% | 1022.7 hPa | 0 mm | - | 853 W/m² | - |
| 1778091570 | 12.78° C | 24% | 1022.8 hPa | 0 mm | - | 855 W/m² | - |
| 1778090358 | 12.22° C | 26% | 1022.9 hPa | 0 mm | - | 843 W/m² | - |
| 1778088534 | 12.22° C | 27% | 1022.5 hPa | 0 mm | - | 802 W/m² | - |
| 1778087928 | 11.67° C | 26% | 1022.5 hPa | 0 mm | - | 780 W/m² | - |
| 1778087322 | 12.22° C | 24% | 1022.4 hPa | 0 mm | - | 772 W/m² | - |
| 1778086409 | 11.67° C | 22% | 1021.9 hPa | 0 mm | - | 742 W/m² | - |
| 1778085494 | 11.67° C | 26% | 1021.8 hPa | 0 mm | - | 704 W/m² | - |
| 1778083365 | 10.56° C | 35% | 1021.4 hPa | 0 mm | - | 620 W/m² | - |
| 1778083064 | 10.56° C | 36% | 1021.4 hPa | 0 mm | - | 609 W/m² | - |
| 1778082760 | 10.56° C | 36% | 1021.1 hPa | 0 mm | - | 535 W/m² | - |
| 1778081027 | 11.11° C | 35% | 1020.9 hPa | 0 mm | - | 486 W/m² | - |
| 1778080422 | 10.56° C | 34% | 1020.6 hPa | 0 mm | - | 445 W/m² | - |
| 1778080119 | 10.56° C | 39% | 1020.6 hPa | 0 mm | - | 433 W/m² | - |
| 1778077998 | 10° C | 45% | 1020.3 hPa | 0 mm | - | 322 W/m² | - |
| 1778077696 | 10° C | 45% | 1020.3 hPa | 0 mm | - | 322 W/m² | - |
* Rain latest hour (hover to see other rain measurements)
** Current wind speed in m/s (hover to see current wind gust speed)